createdAt,value
2018-12-26T00:02:36.213Z,103227.70
2018-12-26T00:05:17.382Z,103216.45
2018-12-26T00:07:59.968Z,103216.45
2018-12-26T00:10:44.680Z,103217.44
2018-12-26T00:13:22.470Z,103218.74
2018-12-26T00:16:13.627Z,103217.95
2018-12-26T00:18:48.958Z,103212.74
2018-12-26T00:21:27.279Z,103207.59
2018-12-26T00:24:06.196Z,103212.91
2018-12-26T00:26:50.186Z,103205.92
2018-12-26T00:29:31.265Z,103207.70
2018-12-26T00:32:17.038Z,103209.98
2018-12-26T00:34:58.522Z,103205.19
2018-12-26T00:37:41.918Z,103199.16
2018-12-26T00:40:24.762Z,103201.35
2018-12-26T00:43:10.848Z,103202.75
2018-12-26T00:46:01.513Z,103203.33
2018-12-26T00:48:42.606Z,103208.22
2018-12-26T00:51:29.377Z,103203.90
2018-12-26T00:54:09.024Z,103198.38
2018-12-26T00:56:50.469Z,103208.38
2018-12-26T00:59:35.445Z,103206.39
2018-12-26T01:02:19.548Z,103209.88
2018-12-26T01:05:01.248Z,103211.28
2018-12-26T01:07:46.412Z,103203.53
2018-12-26T01:10:33.258Z,103205.66
2018-12-26T01:13:12.573Z,103216.14
2018-12-26T01:15:54.049Z,103218.84
2018-12-26T01:18:36.015Z,103202.95
2018-12-26T01:21:26.519Z,103207.95
2018-12-26T01:24:11.194Z,103203.63
2018-12-26T01:27:02.310Z,103201.81
2018-12-26T01:29:42.049Z,103200.45
2018-12-26T01:32:21.954Z,103188.21
2018-12-26T01:35:04.303Z,103186.13
2018-12-26T01:37:48.625Z,103177.48
2018-12-26T01:40:28.571Z,103176.27
2018-12-26T01:43:12.365Z,103177.58
2018-12-26T01:45:54.284Z,103177.58
2018-12-26T01:48:36.937Z,103182.37
2018-12-26T01:51:18.417Z,103179.77
2018-12-26T01:54:03.256Z,103185.30
2018-12-26T01:56:44.553Z,103174.39
2018-12-26T01:59:26.705Z,103176.69
2018-12-26T02:02:09.688Z,103187.10
2018-12-26T02:04:52.894Z,103185.39
2018-12-26T02:07:37.081Z,103179.77
2018-12-26T02:10:18.289Z,103174.65
2018-12-26T02:13:01.210Z,103172.52
2018-12-26T02:15:43.155Z,103170.33
2018-12-26T02:18:28.702Z,103165.02
2018-12-26T02:21:20.268Z,103160.80
2018-12-26T02:24:03.995Z,103160.06
2018-12-26T02:27:42.541Z,103150.95
2018-12-26T02:30:29.000Z,103163.18
2018-12-26T02:33:08.486Z,103148.34
2018-12-26T02:35:51.274Z,103149.33
2018-12-26T02:38:31.415Z,103150.41
2018-12-26T02:41:11.087Z,103137.63
2018-12-26T02:43:51.845Z,103142.01
2018-12-26T02:46:33.335Z,103152.44
2018-12-26T02:49:25.683Z,103147.31
2018-12-26T02:52:08.491Z,103155.23
2018-12-26T02:54:49.831Z,103153.00
2018-12-26T02:57:35.102Z,103147.89
2018-12-26T03:00:16.182Z,103143.50
2018-12-26T03:02:59.495Z,103139.66
2018-12-26T03:05:42.909Z,103147.09
2018-12-26T03:08:21.691Z,103138.86
2018-12-26T03:11:04.183Z,103148.08
2018-12-26T03:13:44.434Z,103144.16
2018-12-26T03:16:26.853Z,103137.30
2018-12-26T03:19:08.161Z,103138.22
2018-12-26T03:21:50.128Z,103139.90
2018-12-26T03:24:34.204Z,103128.17
2018-12-26T03:27:17.827Z,103120.35
2018-12-26T03:30:03.874Z,103115.14
2018-12-26T03:32:46.465Z,103103.41
2018-12-26T03:35:26.084Z,103103.03
2018-12-26T03:38:05.945Z,103099.12
2018-12-26T03:40:44.733Z,103096.58
2018-12-26T03:43:24.867Z,103107.00
2018-12-26T03:46:04.597Z,103100.98
2018-12-26T03:48:42.707Z,103092.19
2018-12-26T03:51:22.115Z,103088.28
2018-12-26T03:54:04.402Z,103084.05
2018-12-26T03:56:44.300Z,103089.73
2018-12-26T03:59:28.362Z,103085.83
2018-12-26T04:02:08.323Z,103080.61
2018-12-26T04:04:49.910Z,103081.02
2018-12-26T04:07:33.542Z,103089.73
2018-12-26T04:10:13.913Z,103080.94
2018-12-26T04:12:57.036Z,103079.95
2018-12-26T04:15:37.677Z,103079.39
2018-12-26T04:18:18.011Z,103083.14
2018-12-26T04:20:57.678Z,103082.58
2018-12-26T04:23:37.873Z,103075.08
2018-12-26T04:26:20.279Z,103069.36
2018-12-26T04:29:00.051Z,103069.45
2018-12-26T04:31:40.196Z,103069.55
2018-12-26T04:34:20.850Z,103079.23
2018-12-26T04:37:00.827Z,103060.41
2018-12-26T04:39:46.242Z,103076.78
2018-12-26T04:42:26.714Z,103079.48
2018-12-26T04:45:12.458Z,103081.77
2018-12-26T04:47:55.470Z,103079.72
2018-12-26T04:50:35.308Z,103083.78
2018-12-26T04:53:20.394Z,103073.45
2018-12-26T04:56:02.147Z,103076.56
2018-12-26T04:58:46.545Z,103077.19
2018-12-26T05:01:30.050Z,103079.47
2018-12-26T05:04:09.710Z,103080.86
2018-12-26T05:06:51.539Z,103083.30
2018-12-26T05:09:31.275Z,103090.47
2018-12-26T05:12:11.512Z,103091.54
2018-12-26T05:14:52.630Z,103097.70
2018-12-26T05:17:32.321Z,103093.97
2018-12-26T05:20:11.296Z,103098.45
2018-12-26T05:22:53.001Z,103108.64
2018-12-26T05:25:31.354Z,103109.67
2018-12-26T05:28:13.005Z,103110.19
2018-12-26T05:30:53.123Z,103110.33
2018-12-26T05:33:33.278Z,103116.52
2018-12-26T05:36:12.743Z,103110.56
2018-12-26T05:38:53.304Z,103112.84
2018-12-26T05:41:33.148Z,103107.30
2018-12-26T05:44:16.271Z,103107.86
2018-12-26T05:46:55.532Z,103111.87
2018-12-26T05:49:34.988Z,103109.82
2018-12-26T05:52:17.996Z,103112.43
2018-12-26T05:55:04.164Z,103110.23
2018-12-26T05:57:43.370Z,103114.63
2018-12-26T06:00:23.348Z,103121.62
2018-12-26T06:03:00.799Z,103121.23
2018-12-26T06:05:40.207Z,103120.91
2018-12-26T06:08:22.354Z,103117.87
2018-12-26T06:11:01.410Z,103120.49
2018-12-26T06:13:40.035Z,103099.39
2018-12-26T06:16:19.708Z,103121.70
2018-12-26T06:18:59.387Z,103122.54
2018-12-26T06:21:44.952Z,103126.51
2018-12-26T06:24:25.809Z,103126.12
2018-12-26T06:27:04.858Z,103126.51
2018-12-26T06:29:44.801Z,103123.42
2018-12-26T06:32:28.229Z,103137.27
2018-12-26T06:35:15.837Z,103133.36
2018-12-26T06:37:53.206Z,103133.36
2018-12-26T06:40:32.517Z,103132.88
2018-12-26T06:43:15.029Z,103134.75
2018-12-26T06:45:57.119Z,103134.34
2018-12-26T06:48:42.420Z,103127.91
2018-12-26T06:51:22.404Z,103127.16
2018-12-26T06:54:01.176Z,103125.05
2018-12-26T06:56:44.361Z,103131.81
2018-12-26T06:59:24.181Z,103128.88
2018-12-26T07:02:04.745Z,103132.05
2018-12-26T07:04:43.479Z,103130.88
2018-12-26T07:07:23.315Z,103134.94
2018-12-26T07:09:58.928Z,103140.34
2018-12-26T07:12:36.285Z,103137.78
2018-12-26T07:15:18.033Z,103144.90
2018-12-26T07:17:55.352Z,103141.55
2018-12-26T07:20:30.284Z,103140.29
2018-12-26T07:23:04.884Z,103146.11
2018-12-26T07:25:47.400Z,103151.05
2018-12-26T07:28:30.588Z,103146.39
2018-12-26T07:31:12.235Z,103147.36
2018-12-26T07:33:50.373Z,103145.64
2018-12-26T07:36:32.575Z,103150.86
2018-12-26T07:39:12.419Z,103151.37
2018-12-26T07:41:50.728Z,103153.98
2018-12-26T07:44:30.303Z,103151.37
2018-12-26T07:47:10.401Z,103151.84
2018-12-26T07:49:54.051Z,103156.73
2018-12-26T07:52:30.005Z,103154.20
2018-12-26T07:55:17.971Z,103156.91
2018-12-26T07:57:57.767Z,103153.05
2018-12-26T08:00:38.260Z,103151.73
2018-12-26T08:03:27.785Z,103148.70
2018-12-26T08:06:15.048Z,103150.19
2018-12-26T08:08:55.685Z,103156.30
2018-12-26T08:11:33.729Z,103155.55
2018-12-26T08:14:23.122Z,103158.37
2018-12-26T08:17:15.024Z,103147.97
2018-12-26T08:19:55.493Z,103160.14
2018-12-26T08:22:35.987Z,103167.56
2018-12-26T08:25:23.123Z,103160.98
2018-12-26T08:28:06.354Z,103166.34
2018-12-26T08:30:44.899Z,103163.31
2018-12-26T08:33:34.405Z,103170.81
2018-12-26T08:36:13.370Z,103172.68
2018-12-26T08:38:51.298Z,103172.34
2018-12-26T08:41:32.382Z,103167.26
2018-12-26T08:44:14.003Z,103165.95
2018-12-26T08:46:54.600Z,103170.05
2018-12-26T08:49:38.346Z,103168.41
2018-12-26T19:15:31.442Z,103062.92
2018-12-26T19:18:11.481Z,103059.42
2018-12-26T19:20:54.521Z,103049.87
2018-12-26T19:23:48.342Z,103053.87
2018-12-26T19:26:35.828Z,103055.98
2018-12-26T19:29:18.727Z,103056.86
2018-12-26T19:32:06.956Z,103054.75
2018-12-26T19:34:49.412Z,103057.20
2018-12-26T19:37:31.937Z,103059.20
2018-12-26T19:40:12.302Z,103054.23
2018-12-26T19:42:54.472Z,103054.09
2018-12-26T19:45:32.073Z,103050.09
2018-12-26T19:48:10.634Z,103049.53
2018-12-26T19:50:52.717Z,103053.78
2018-12-26T19:53:30.945Z,103048.09
2018-12-26T19:56:07.467Z,103043.25
2018-12-26T19:58:50.514Z,103040.59
2018-12-26T20:01:33.882Z,103043.12
2018-12-26T20:04:10.940Z,103047.36
2018-12-26T20:06:51.969Z,103046.89
2018-12-26T20:09:40.892Z,103042.48
2018-12-26T20:12:18.730Z,103046.30
2018-12-26T20:14:58.344Z,103043.69
2018-12-26T20:17:43.746Z,103034.42
2018-12-26T20:20:32.114Z,103044.30
2018-12-26T20:23:26.708Z,103041.05
2018-12-26T20:26:06.999Z,103041.38
2018-12-26T20:28:47.880Z,103035.19
2018-12-26T20:31:26.201Z,103038.12
2018-12-26T20:34:08.568Z,103021.91
2018-12-26T20:36:53.005Z,103017.95
2018-12-26T20:39:32.523Z,103010.50
2018-12-26T20:42:07.070Z,103004.73
2018-12-26T20:44:45.012Z,103002.53
2018-12-26T20:47:40.816Z,102997.17
2018-12-26T20:50:20.134Z,102999.78
2018-12-26T20:52:57.985Z,103002.64
2018-12-26T20:55:39.744Z,103002.17
2018-12-26T20:58:16.008Z,102999.05
2018-12-26T21:00:53.879Z,102993.84
2018-12-26T21:03:32.675Z,102994.67
2018-12-26T21:06:09.950Z,102989.92
2018-12-26T21:08:50.736Z,102985.59
2018-12-26T21:11:27.572Z,102992.95
2018-12-26T21:14:03.351Z,102985.04
2018-12-26T21:16:43.073Z,102978.52
2018-12-26T21:19:33.547Z,102977.62
2018-12-26T21:22:09.787Z,102972.50
2018-12-26T21:24:44.773Z,102970.28
2018-12-26T21:27:23.896Z,102971.52
2018-12-26T21:30:00.755Z,102973.62
2018-12-26T21:32:40.310Z,102973.16
2018-12-26T21:35:20.232Z,102973.62
2018-12-26T21:38:00.478Z,102966.14
2018-12-26T21:40:39.806Z,102975.68
2018-12-26T21:43:36.792Z,102967.30
2018-12-26T21:46:16.990Z,102970.33
2018-12-26T21:48:53.678Z,102979.88
2018-12-26T21:51:39.271Z,102975.95
2018-12-26T21:54:22.759Z,102978.06
2018-12-26T21:57:02.960Z,102979.23
2018-12-26T21:59:44.848Z,102956.28
2018-12-26T22:02:29.514Z,102976.72
2018-12-26T22:05:11.319Z,102975.33
2018-12-26T22:08:02.713Z,102976.58
2018-12-26T22:10:44.970Z,102977.78
2018-12-26T22:13:39.412Z,102980.72
2018-12-26T22:16:21.384Z,102972.76
2018-12-26T22:19:00.012Z,102969.17
2018-12-26T22:21:43.276Z,102964.77
2018-12-26T22:24:42.441Z,102967.31
2018-12-26T22:27:35.761Z,102962.75
2018-12-26T22:30:16.094Z,102961.27
2018-12-26T22:32:58.482Z,102968.70
